Time;durP1;ratioP1;P1;durP2;ratioP2;P2;SDS_P1;SDS_P2;PMS_P1;PMS_P2;Temp;Humidity;BMP_temperature;BMP_pressure;BME280_temperature;BME280_humidity;BME280_pressure;Samples;Min_cycle;Max_cycle;Signal;HPM_P1;HPM_P2
2021/09/12 00:04:16;;;;;;;1999.90;679.47;;;;;;;24.45;70.79;96886.54;1115126;258;98439;-51
2021/09/12 00:09:17;;;;;;;1999.90;735.63;;;;;;;24.52;70.53;96891.70;1116148;259;72028;-51
2021/09/12 00:14:19;;;;;;;1999.90;664.42;;;;;;;24.50;70.57;96892.64;1115141;260;71327;-51
2021/09/12 00:19:21;;;;;;;1999.90;677.00;;;;;;;25.17;68.94;96887.19;1114522;260;275229;-50
2021/09/12 00:24:22;;;;;;;1999.90;698.00;;;;;;;26.48;65.73;96892.58;1118565;259;100026;-44
2021/09/12 00:29:24;;;;;;;1999.90;974.47;;;;;;;26.96;64.79;96889.63;1117021;259;100332;-54
2021/09/12 00:34:25;;;;;;;1643.30;567.57;;;;;;;27.51;63.16;96890.09;1114614;259;194286;-44
2021/09/12 00:39:29;;;;;;;354.47;87.23;;;;;;;29.98;58.63;96875.93;1115447;260;98021;-46
2021/09/12 00:44:30;;;;;;;57.13;19.07;;;;;;;30.89;56.86;96876.61;1115972;259;75692;-46
2021/09/12 00:54:51;;;;;;;32.40;11.10;;;;;;;32.53;54.13;96864.99;1116307;259;152767;-45
2021/09/12 00:59:53;;;;;;;22.47;9.30;;;;;;;33.07;53.40;96867.66;1117280;259;98017;-46
2021/09/12 01:04:54;;;;;;;22.00;7.77;;;;;;;33.36;52.83;96862.58;1118171;259;99640;-48
2021/09/12 01:09:56;;;;;;;21.87;7.33;;;;;;;34.09;51.70;96867.02;1118160;259;195555;-45
2021/09/12 01:14:57;;;;;;;20.67;6.87;;;;;;;34.26;51.60;96860.98;1118634;259;97998;-48
2021/09/12 01:19:59;;;;;;;16.43;5.53;;;;;;;34.34;51.63;96853.22;1117558;259;98948;-46
2021/09/12 01:25:00;;;;;;;14.57;5.63;;;;;;;34.70;51.04;96847.92;1115101;259;186686;-49
2021/09/12 01:30:02;;;;;;;13.27;5.97;;;;;;;34.92;50.91;96864.69;1117801;259;98955;-47
2021/09/12 01:35:04;;;;;;;11.90;5.53;;;;;;;35.16;50.32;96862.67;1118660;259;96808;-46
2021/09/12 01:40:06;;;;;;;12.73;5.53;;;;;;;35.35;50.29;96861.14;1116731;259;99429;-46
2021/09/12 01:45:07;;;;;;;9.53;4.67;;;;;;;35.29;50.36;96858.63;1115067;260;69718;-46
2021/09/12 01:50:09;;;;;;;8.43;4.33;;;;;;;35.35;50.39;96851.28;1116268;259;69386;-44
2021/09/12 01:55:10;;;;;;;8.57;4.17;;;;;;;35.32;50.38;96849.33;1118471;259;279061;-46
2021/09/12 02:00:12;;;;;;;7.83;4.50;;;;;;;35.71;49.78;96852.04;1118582;259;98017;-46
2021/09/12 02:05:13;;;;;;;6.53;4.00;;;;;;;35.85;49.77;96843.31;1117645;259;98960;-47
2021/09/12 02:10:15;;;;;;;7.70;4.10;;;;;;;35.91;49.49;96833.13;1113573;259;194701;-46
2021/09/12 02:15:16;;;;;;;5.10;4.00;;;;;;;36.08;49.38;96826.33;1118145;259;98966;-46
2021/09/12 02:20:18;;;;;;;5.73;3.47;;;;;;;36.08;49.31;96839.03;1117305;259;98018;-49
2021/09/12 02:25:19;;;;;;;4.53;3.40;;;;;;;36.43;48.95;96844.53;1117312;258;190276;-46
2021/09/12 02:30:21;;;;;;;4.97;3.40;;;;;;;36.17;49.39;96846.30;1118931;259;98875;-48
2021/09/12 02:35:23;;;;;;;5.30;3.27;;;;;;;36.35;49.14;96847.33;1117658;259;98995;-49
2021/09/12 02:40:24;;;;;;;4.20;3.47;;;;;;;36.31;49.04;96847.20;1116395;259;197483;-49
2021/09/12 02:45:26;;;;;;;5.07;3.23;;;;;;;36.75;48.51;96848.02;1117753;259;98017;-46
2021/09/12 02:50:27;;;;;;;4.80;3.37;;;;;;;36.99;48.06;96837.37;1117098;259;99057;-46
2021/09/12 02:55:29;;;;;;;5.90;3.63;;;;;;;34.68;50.96;96836.30;1116614;259;187770;-45
2021/09/12 03:00:30;;;;;;;3.87;3.07;;;;;;;33.67;52.86;96835.97;1118595;259;98963;-45
2021/09/12 03:05:32;;;;;;;3.43;3.00;;;;;;;33.05;53.94;96834.16;1117144;259;97995;-47
2021/09/12 03:10:33;;;;;;;3.97;3.37;;;;;;;32.42;54.92;96829.20;1115619;259;98863;-47
2021/09/12 03:15:35;;;;;;;3.87;3.13;;;;;;;31.93;55.68;96840.86;1115391;259;70907;-47
2021/09/12 03:20:36;;;;;;;4.90;3.13;;;;;;;31.40;56.46;96840.41;1116600;259;70387;-45
2021/09/12 03:25:38;;;;;;;3.37;2.77;;;;;;;30.92;57.18;96842.22;1114892;259;274962;-45
2021/09/12 03:30:39;;;;;;;4.77;3.03;;;;;;;30.59;57.62;96828.59;1118525;259;97681;-48
2021/09/12 03:35:41;;;;;;;4.00;3.30;;;;;;;30.25;58.08;96823.35;1117320;259;98948;-46
2021/09/12 03:40:42;;;;;;;4.30;3.27;;;;;;;29.99;58.39;96830.05;1116405;259;194269;-45
2021/09/12 03:45:44;;;;;;;4.00;3.37;;;;;;;29.77;58.68;96825.55;1118823;259;97993;-46
2021/09/12 03:50:46;;;;;;;3.73;3.00;;;;;;;29.55;58.94;96824.66;1117240;259;100361;-46
2021/09/12 03:55:47;;;;;;;3.37;2.93;;;;;;;29.32;59.22;96820.71;1118309;259;191143;-46
2021/09/12 04:00:49;;;;;;;5.40;3.40;;;;;;;29.13;59.45;96820.39;1118620;259;98952;-44
2021/09/12 04:05:50;;;;;;;4.33;3.30;;;;;;;28.94;59.71;96822.08;1118575;259;98982;-46
2021/09/12 04:10:52;;;;;;;4.93;3.77;;;;;;;28.75;59.93;96826.67;1113884;259;194769;-44
2021/09/12 04:15:53;;;;;;;4.57;3.50;;;;;;;28.58;60.18;96825.11;1112515;260;99088;-46
2021/09/12 04:20:55;;;;;;;3.40;3.10;;;;;;;28.42;60.36;96822.59;1110703;260;98991;-47
2021/09/12 04:25:56;;;;;;;5.37;3.60;;;;;;;28.29;60.54;96826.85;1114208;259;187416;-44
2021/09/12 04:30:58;;;;;;;4.30;3.17;;;;;;;28.14;60.71;96818.30;1115805;259;98955;-45
2021/09/12 04:35:59;;;;;;;3.77;3.30;;;;;;;28.02;60.89;96827.52;1114610;260;97911;-45
2021/09/12 04:41:01;;;;;;;4.83;3.70;;;;;;;27.89;61.02;96829.17;1113888;259;98943;-45
2021/09/12 04:46:02;;;;;;;3.80;3.40;;;;;;;27.78;61.18;96831.63;1113546;260;70766;-46
2021/09/12 04:51:04;;;;;;;4.95;3.98;;;;;;;27.68;61.33;96840.64;1114196;259;70896;-43
2021/09/12 04:56:05;;;;;;;4.50;3.57;;;;;;;27.54;61.44;96835.08;1114635;260;277831;-44
2021/09/12 05:01:07;;;;;;;4.60;3.20;;;;;;;27.44;61.60;96845.48;1115397;260;98004;-48
2021/09/12 05:06:08;;;;;;;5.33;3.73;;;;;;;27.35;61.70;96851.31;1115105;260;98956;-44
2021/09/12 05:11:10;;;;;;;4.10;3.40;;;;;;;27.28;61.81;96847.62;1114114;260;194429;-48
2021/09/12 05:16:11;;;;;;;4.77;3.80;;;;;;;27.20;61.91;96855.64;1114938;260;98974;-45
2021/09/12 05:21:13;;;;;;;5.03;3.70;;;;;;;27.13;61.96;96853.58;1114996;260;98648;-55
2021/09/12 05:26:15;;;;;;;4.77;3.30;;;;;;;27.05;62.07;96861.00;1114720;260;189847;-46
2021/09/12 05:31:16;;;;;;;5.27;3.73;;;;;;;26.99;62.19;96854.69;1114820;260;98956;-47
2021/09/12 05:36:18;;;;;;;5.10;3.87;;;;;;;26.92;62.22;96854.02;1114760;260;98943;-46
2021/09/12 05:41:19;;;;;;;4.97;3.57;;;;;;;26.85;62.30;96850.30;1114953;260;195150;-45
2021/09/12 05:46:21;;;;;;;4.10;3.43;;;;;;;26.79;62.41;96853.97;1114372;260;98955;-45
2021/09/12 05:51:22;;;;;;;4.27;3.67;;;;;;;26.74;62.46;96852.91;1114189;260;98170;-46
2021/09/12 05:56:24;;;;;;;4.43;3.30;;;;;;;26.69;62.51;96864.33;1113523;260;187379;-44
2021/09/12 06:01:25;;;;;;;6.80;4.03;;;;;;;26.64;62.59;96867.43;1113963;260;99043;-46
2021/09/12 06:06:27;;;;;;;4.80;3.53;;;;;;;26.57;62.67;96863.93;1114665;260;99003;-48
2021/09/12 06:11:28;;;;;;;4.87;3.60;;;;;;;26.55;62.70;96866.87;1113297;260;99341;-43
2021/09/12 06:16:30;;;;;;;3.80;3.10;;;;;;;26.50;62.75;96870.77;1113214;260;72037;-47
2021/09/12 06:21:31;;;;;;;5.30;3.57;;;;;;;26.44;62.82;96868.87;1114896;260;71964;-44
2021/09/12 06:26:33;;;;;;;6.00;4.03;;;;;;;26.41;62.87;96867.42;1113737;260;277273;-43
2021/09/12 06:31:34;;;;;;;5.13;3.73;;;;;;;26.37;62.89;96865.98;1114966;260;100316;-44
2021/09/12 06:36:36;;;;;;;4.60;3.63;;;;;;;26.33;62.96;96864.27;1113981;260;98911;-44
2021/09/12 06:41:37;;;;;;;4.77;3.73;;;;;;;26.28;63.00;96861.21;1115343;260;193402;-46
2021/09/12 06:46:39;;;;;;;5.00;3.37;;;;;;;26.23;63.05;96862.30;1115187;260;100327;-47
2021/09/12 06:51:41;;;;;;;5.97;4.10;;;;;;;26.20;63.08;96863.63;1114831;258;98835;-44
2021/09/12 06:56:42;;;;;;;5.57;3.73;;;;;;;26.17;63.14;96867.16;1114526;260;188945;-46
2021/09/12 07:01:44;;;;;;;5.70;3.67;;;;;;;26.14;63.16;96870.64;1111920;259;98980;-44
2021/09/12 07:06:45;;;;;;;5.83;4.10;;;;;;;26.11;63.20;96863.05;1115036;260;99028;-44
2021/09/12 07:11:47;;;;;;;6.70;4.00;;;;;;;26.06;63.24;96862.78;1114296;260;193819;-45
2021/09/12 07:16:49;;;;;;;7.00;4.50;;;;;;;26.05;63.22;96861.73;1112153;260;99060;-42
2021/09/12 07:21:52;;;;;;;5.87;3.97;;;;;;;26.01;63.28;96867.81;1114631;260;100210;-44
2021/09/12 07:26:53;;;;;;;8.17;4.63;;;;;;;25.98;63.29;96872.72;1112777;260;187527;-45
2021/09/12 07:31:56;;;;;;;8.90;4.20;;;;;;;25.97;63.37;96878.06;1110943;260;98959;-45
2021/09/12 07:36:58;;;;;;;6.57;4.40;;;;;;;25.92;63.37;96874.39;1110805;261;98826;-45
2021/09/12 07:41:59;;;;;;;9.23;5.13;;;;;;;25.89;63.40;96878.49;1108772;261;98069;-44
2021/09/12 07:47:01;;;;;;;7.35;4.80;;;;;;;25.88;63.44;96887.41;1114091;259;70814;-47
2021/09/12 07:52:02;;;;;;;6.40;4.33;;;;;;;25.86;63.41;96886.17;1116077;260;70822;-46
2021/09/12 07:57:04;;;;;;;7.17;4.30;;;;;;;25.82;63.46;96888.85;1115243;259;76179;-45
2021/09/12 08:02:05;;;;;;;7.13;4.87;;;;;;;25.80;63.48;96896.75;1113703;259;275626;-43
2021/09/12 08:07:07;;;;;;;9.77;4.83;;;;;;;25.78;63.54;96891.34;1113063;260;98091;-47
2021/09/12 08:12:08;;;;;;;7.13;4.63;;;;;;;25.76;63.49;96900.05;1112286;260;98971;-43
2021/09/12 08:17:10;;;;;;;6.97;4.63;;;;;;;25.73;63.54;96902.14;1112390;260;194402;-45
2021/09/12 08:22:12;;;;;;;8.10;4.67;;;;;;;25.71;63.51;96907.84;1112988;260;98979;-48
2021/09/12 08:27:13;;;;;;;8.63;5.23;;;;;;;25.69;63.57;96913.73;1110791;260;98591;-45
2021/09/12 08:32:15;;;;;;;8.40;4.97;;;;;;;25.67;63.55;96916.08;1114906;259;190052;-45
2021/09/12 08:37:16;;;;;;;9.33;5.30;;;;;;;25.66;63.55;96914.47;1114215;259;99705;-45
2021/09/12 08:42:18;;;;;;;8.03;5.00;;;;;;;25.63;63.59;96911.04;1109986;260;97985;-46
2021/09/12 08:47:19;;;;;;;8.43;5.07;;;;;;;25.60;63.62;96899.25;1114063;260;195841;-45
2021/09/12 08:52:21;;;;;;;9.40;5.20;;;;;;;25.58;63.59;96908.53;1112308;259;98021;-45
2021/09/12 08:57:22;;;;;;;8.77;5.50;;;;;;;25.58;63.60;96907.14;1113161;260;99072;-46
2021/09/12 09:02:24;;;;;;;8.70;5.03;;;;;;;25.54;63.68;96911.82;1112106;258;189182;-46
2021/09/12 09:07:26;;;;;;;8.07;4.70;;;;;;;25.54;63.63;96910.44;1110750;260;98932;-45
2021/09/12 09:12:27;;;;;;;9.80;4.57;;;;;;;25.52;63.65;96906.64;1111263;260;97960;-43
2021/09/12 09:17:29;;;;;;;10.53;5.10;;;;;;;25.50;63.65;96913.70;1114108;259;98953;-43
2021/09/12 09:22:30;;;;;;;7.57;5.10;;;;;;;25.50;63.67;96903.39;1113382;259;70897;-46
2021/09/12 09:27:32;;;;;;;7.50;4.77;;;;;;;25.49;63.69;96906.54;1112514;260;72025;-43
2021/09/12 09:32:33;;;;;;;6.80;4.53;;;;;;;25.48;63.70;96907.13;1111243;259;276969;-44
2021/09/12 09:37:35;;;;;;;9.37;5.37;;;;;;;25.45;63.73;96909.83;1112209;260;97964;-44
2021/09/12 09:42:36;;;;;;;7.57;5.57;;;;;;;25.44;63.74;96909.61;1112340;260;99057;-44
2021/09/12 09:47:38;;;;;;;8.37;5.47;;;;;;;25.43;63.70;96899.09;1115865;258;194416;-44
2021/09/12 09:52:39;;;;;;;8.13;4.90;;;;;;;25.41;63.73;96896.44;1112685;260;99055;-46
2021/09/12 09:57:41;;;;;;;9.17;5.33;;;;;;;25.39;63.77;96895.42;1114769;260;98804;-45
2021/09/12 10:02:42;;;;;;;7.90;5.07;;;;;;;25.38;63.76;96894.61;1114091;260;189959;-44
2021/09/12 10:07:44;;;;;;;7.07;4.80;;;;;;;25.34;63.76;96889.58;1113608;260;98968;-46
2021/09/12 10:12:45;;;;;;;9.57;5.60;;;;;;;25.35;63.83;96894.55;1113650;260;100240;-44
2021/09/12 10:17:47;;;;;;;7.63;5.00;;;;;;;25.32;63.80;96882.20;1112315;260;194934;-46
2021/09/12 10:22:49;;;;;;;8.97;5.30;;;;;;;25.32;63.84;96883.59;1112700;260;99414;-44
2021/09/12 10:27:50;;;;;;;7.53;5.10;;;;;;;25.29;63.95;96875.17;1113232;260;98147;-43
2021/09/12 10:32:52;;;;;;;7.03;5.10;;;;;;;25.30;63.84;96867.87;1109645;260;187889;-44
2021/09/12 10:37:53;;;;;;;9.27;5.17;;;;;;;25.29;63.83;96852.37;1114058;260;99087;-44
2021/09/12 10:42:55;;;;;;;8.63;5.17;;;;;;;25.28;63.83;96864.66;1112166;260;99018;-46
2021/09/12 10:47:56;;;;;;;8.70;5.23;;;;;;;25.28;63.84;96867.43;1109625;261;99392;-45
2021/09/12 10:52:59;;;;;;;7.70;5.13;;;;;;;25.27;63.84;96871.95;1112454;259;72029;-46
2021/09/12 10:58:00;;;;;;;7.27;4.93;;;;;;;25.27;63.84;96864.44;1112978;260;72570;-45
2021/09/12 11:03:02;;;;;;;7.57;5.43;;;;;;;25.23;63.88;96856.63;1113475;260;272940;-45
2021/09/12 11:08:03;;;;;;;7.67;5.00;;;;;;;25.24;63.81;96859.63;1114278;260;98930;-44
2021/09/12 11:13:05;;;;;;;6.33;4.43;;;;;;;25.25;63.85;96859.04;1112943;260;99078;-45
2021/09/12 11:18:06;;;;;;;6.03;4.77;;;;;;;25.22;63.87;96855.02;1112529;260;193609;-47
2021/09/12 11:23:08;;;;;;;9.37;5.00;;;;;;;25.21;63.86;96850.64;1113285;260;98940;-45
2021/09/12 11:28:09;;;;;;;7.60;5.27;;;;;;;25.21;63.82;96845.69;1112629;260;99282;-45
2021/09/12 11:33:11;;;;;;;7.77;4.97;;;;;;;25.18;63.86;96843.03;1113785;260;190329;-47
2021/09/12 11:38:12;;;;;;;6.30;4.87;;;;;;;25.19;63.82;96848.80;1114565;260;98945;-47
2021/09/12 11:43:18;;;;;;;7.10;5.13;;;;;;;25.17;63.87;96854.48;1113912;260;98968;-45
2021/09/12 11:48:19;;;;;;;8.17;5.73;;;;;;;25.16;63.86;96856.46;1114291;260;196547;-44
2021/09/12 11:53:21;;;;;;;6.47;4.77;;;;;;;25.16;63.85;96848.14;1112787;260;98013;-45
2021/09/12 11:58:24;;;;;;;6.97;5.13;;;;;;;25.14;63.90;96844.93;1112191;260;98873;-44
2021/09/12 12:03:25;;;;;;;6.20;4.67;;;;;;;25.15;63.88;96847.92;1113830;260;187357;-43
2021/09/12 12:08:27;;;;;;;8.43;5.87;;;;;;;25.13;63.94;96846.09;1114360;259;98944;-44
2021/09/12 12:13:28;;;;;;;9.40;5.83;;;;;;;25.13;63.92;96839.16;1115497;260;97159;-44
2021/09/12 12:18:33;;;;;;;9.00;4.83;;;;;;;25.13;63.92;96840.55;1113585;260;98894;-45
2021/09/12 12:23:33;;;;;;;7.73;4.57;;;;;;;25.13;63.95;96834.20;1112403;260;71912;-47
2021/09/12 12:28:35;;;;;;;9.77;5.20;;;;;;;25.13;63.91;96828.66;1113377;260;71732;-44
2021/09/12 12:33:36;;;;;;;249.30;66.93;;;;;;;24.75;70.03;96825.36;1115024;260;72127;-44
2021/09/12 12:38:38;;;;;;;235.97;65.57;;;;;;;24.76;69.80;96823.39;1114429;260;276810;-45
2021/09/12 12:43:39;;;;;;;176.10;45.33;;;;;;;25.77;67.06;96821.14;1114253;259;99066;-44
2021/09/12 12:48:47;;;;;;;257.40;88.30;;;;;;;26.25;65.89;96821.64;1113553;258;98021;-45
2021/09/12 12:53:45;;;;;;;595.60;236.90;;;;;;;26.74;64.65;96818.16;1113423;260;163996;-46
2021/09/12 12:58:47;;;;;;;586.07;215.07;;;;;;;27.05;64.05;96815.09;1114734;258;97934;-48
2021/09/12 13:03:48;;;;;;;519.10;177.72;;;;;;;27.23;63.62;96809.00;1114673;260;98278;-44
2021/09/12 13:08:50;;;;;;;666.37;249.77;;;;;;;27.93;62.05;96804.93;1114896;260;190340;-44
2021/09/12 13:13:52;;;;;;;540.47;174.03;;;;;;;28.33;61.20;96806.18;1115298;260;97857;-46
2021/09/12 13:18:53;;;;;;;590.33;207.77;;;;;;;28.52;60.62;96813.53;1112188;260;97067;-44
2021/09/12 13:23:55;;;;;;;690.27;256.73;;;;;;;29.15;59.69;96804.08;1114760;260;196322;-45
2021/09/12 13:28:56;;;;;;;639.63;226.03;;;;;;;29.13;59.44;96795.27;1114790;260;98801;-46
2021/09/12 13:33:58;;;;;;;731.20;286.50;;;;;;;29.26;59.17;96788.20;1115047;260;97955;-43
2021/09/12 13:38:59;;;;;;;888.43;352.13;;;;;;;28.75;60.18;96794.59;1114667;260;191532;-46
2021/09/12 13:44:01;;;;;;;793.30;303.57;;;;;;;29.04;59.75;96787.27;1112759;260;98955;-45
2021/09/12 13:49:02;;;;;;;636.10;214.13;;;;;;;29.24;59.54;96785.56;1104285;261;98981;-44
2021/09/12 13:54:04;;;;;;;764.58;290.27;;;;;;;28.76;60.08;96790.62;1108671;260;98077;-45
2021/09/12 13:59:06;;;;;;;887.67;358.50;;;;;;;28.68;60.38;96788.95;1116379;259;70938;-45
2021/09/12 14:04:07;;;;;;;1036.00;439.10;;;;;;;28.45;60.82;96784.18;1116107;259;71780;-44
2021/09/12 14:09:09;;;;;;;1083.17;452.73;;;;;;;28.32;61.22;96780.89;1117081;259;276317;-45
2021/09/12 14:14:10;;;;;;;1999.90;983.17;;;;;;;28.82;60.61;96774.34;1114986;259;97794;-45
2021/09/12 14:19:12;;;;;;;1190.10;483.37;;;;;;;28.64;60.45;96776.98;1116240;259;98947;-45
2021/09/12 14:24:13;;;;;;;1424.67;598.57;;;;;;;28.49;61.00;96779.43;1116733;259;194343;-48
2021/09/12 14:29:15;;;;;;;1507.57;596.57;;;;;;;28.90;60.16;96772.41;1110137;259;99050;-46
2021/09/12 14:34:17;;;;;;;1388.43;549.70;;;;;;;28.83;60.29;96765.38;1116085;259;98120;-46
2021/09/12 14:39:18;;;;;;;1427.37;551.33;;;;;;;28.70;60.55;96764.27;1116759;259;190781;-46
2021/09/12 14:44:21;;;;;;;1331.43;502.13;;;;;;;29.11;59.81;96759.98;1112548;259;98801;-47
2021/09/12 14:49:22;;;;;;;1095.85;400.83;;;;;;;28.48;60.92;96759.70;1106565;261;98943;-50
2021/09/12 14:54:24;;;;;;;1339.77;514.30;;;;;;;29.00;60.03;96759.13;1107333;261;195564;-47
2021/09/12 14:59:26;;;;;;;1281.30;505.83;;;;;;;29.06;59.75;96757.58;1112585;259;97989;-48
2021/09/12 15:04:28;;;;;;;1258.63;468.60;;;;;;;28.81;60.09;96752.59;1111536;260;98983;-48
2021/09/12 15:09:30;;;;;;;1121.40;396.07;;;;;;;28.65;60.50;96752.69;1111985;260;190539;-46
2021/09/12 15:14:31;;;;;;;961.00;327.70;;;;;;;28.58;60.44;96756.20;1111394;260;98943;-46
2021/09/12 15:19:33;;;;;;;923.33;328.90;;;;;;;28.21;60.92;96752.89;1108961;260;98901;-46
2021/09/12 15:24:34;;;;;;;809.73;271.30;;;;;;;28.45;60.98;96750.73;1112041;260;98954;-45
2021/09/12 15:29:36;;;;;;;1262.53;534.83;;;;;;;28.62;60.63;96758.45;1112257;259;70828;-51
2021/09/12 15:34:37;;;;;;;919.00;354.50;;;;;;;28.57;60.60;96762.97;1111321;260;71550;-46
2021/09/12 15:39:39;;;;;;;1176.93;487.60;;;;;;;28.53;60.69;96756.58;1111681;260;277696;-44
2021/09/12 15:44:40;;;;;;;1280.13;529.57;;;;;;;28.43;60.96;96757.29;1111081;260;99436;-49
2021/09/12 15:49:42;;;;;;;1445.00;590.87;;;;;;;28.54;60.81;96758.17;1112944;260;99135;-47
2021/09/12 15:54:43;;;;;;;1432.53;572.83;;;;;;;28.57;60.74;96757.39;1107886;261;193438;-48
2021/09/12 15:59:45;;;;;;;1389.80;550.97;;;;;;;28.36;61.04;96748.86;1112311;260;99875;-45
2021/09/12 16:04:47;;;;;;;1374.57;521.77;;;;;;;28.53;60.71;96749.61;1113053;260;98956;-46
2021/09/12 16:09:48;;;;;;;1224.37;466.33;;;;;;;28.48;60.77;96745.77;1112086;260;189957;-44
2021/09/12 16:14:50;;;;;;;1231.03;461.80;;;;;;;28.43;60.84;96747.53;1113306;260;98096;-44
2021/09/12 16:19:52;;;;;;;1271.37;486.27;;;;;;;28.74;60.26;96752.56;1112294;260;98951;-46
2021/09/12 16:24:53;;;;;;;1376.53;536.27;;;;;;;28.64;60.25;96749.09;1113475;260;194712;-44
2021/09/12 16:29:55;;;;;;;1399.87;538.00;;;;;;;28.59;60.39;96750.03;1112114;260;97032;-47
2021/09/12 16:34:56;;;;;;;1399.93;545.50;;;;;;;28.61;60.30;96740.71;1111379;260;98826;-47
2021/09/12 16:39:58;;;;;;;1399.00;531.87;;;;;;;28.80;59.79;96739.03;1113434;260;190050;-46
2021/09/12 16:45:03;;;;;;;1608.50;607.83;;;;;;;26.65;64.34;96748.91;1112938;260;98010;-53
2021/09/12 16:50:03;;;;;;;1999.90;993.30;;;;;;;26.38;65.75;96751.47;1113026;260;73506;-47
2021/09/12 16:55:04;;;;;;;1549.13;602.07;;;;;;;25.95;66.00;96752.88;1112844;260;98952;-50
2021/09/12 17:00:06;;;;;;;1427.60;540.50;;;;;;;26.50;64.92;96747.89;1108940;260;98936;-44
2021/09/12 17:05:07;;;;;;;1402.93;531.43;;;;;;;27.77;62.00;96743.09;1111214;260;71726;-44
2021/09/12 17:10:09;;;;;;;1290.23;483.20;;;;;;;29.69;58.29;96742.94;1111994;260;70697;-45
2021/09/12 17:15:13;;;;;;;1392.13;557.53;;;;;;;30.49;56.38;96745.67;1112915;260;275656;-45
2021/09/12 17:20:14;;;;;;;1999.90;999.90;;;;;;;30.01;58.15;96747.21;1110332;260;102243;-46
2021/09/12 17:25:16;;;;;;;1177.80;458.27;;;;;;;29.48;57.99;96745.05;1113844;260;98940;-50
2021/09/12 17:30:17;;;;;;;1096.93;427.60;;;;;;;29.55;58.01;96754.84;1112649;260;98045;-48
2021/09/12 17:35:19;;;;;;;1055.23;387.10;;;;;;;30.57;56.81;96756.88;1113023;260;193760;-48
2021/09/12 17:40:20;;;;;;;1655.07;667.97;;;;;;;26.51;64.14;96756.45;1112574;260;98984;-43
2021/09/12 17:45:22;;;;;;;1603.43;637.50;;;;;;;25.75;66.00;96761.03;1112953;260;98940;-43
2021/09/12 17:50:23;;;;;;;1999.90;773.47;;;;;;;25.97;65.71;96769.76;1113093;260;189989;-43
2021/09/12 17:55:25;;;;;;;1437.83;560.47;;;;;;;26.87;63.66;96770.08;1112255;260;98936;-43
2021/09/12 18:00:26;;;;;;;1197.30;455.30;;;;;;;28.37;60.40;96771.36;1111155;259;98846;-45
2021/09/12 18:05:28;;;;;;;1084.57;393.50;;;;;;;30.69;55.97;96776.08;1109534;258;198099;-44
2021/09/12 18:10:30;;;;;;;808.70;279.33;;;;;;;30.35;56.39;96782.63;1114584;258;99234;-47
2021/09/12 18:15:31;;;;;;;1034.47;427.07;;;;;;;29.70;57.52;96787.23;1113022;258;97071;-47
2021/09/12 18:20:33;;;;;;;964.63;372.57;;;;;;;29.39;58.11;96785.87;1113055;260;190418;-48
2021/09/12 18:25:34;;;;;;;1132.50;469.40;;;;;;;29.58;57.88;96787.59;1112332;260;98993;-45
2021/09/12 18:30:37;;;;;;;1245.30;519.60;;;;;;;29.58;57.53;96786.19;1110041;260;99199;-45
2021/09/12 18:35:39;;;;;;;1098.83;436.03;;;;;;;29.82;57.70;96802.23;1112743;259;98955;-47
2021/09/12 18:40:40;;;;;;;851.70;313.67;;;;;;;29.26;58.22;96809.13;1111606;259;97719;-47
2021/09/12 18:45:42;;;;;;;713.60;245.50;;;;;;;29.05;58.60;96815.37;1110407;259;71922;-50
2021/09/12 18:50:44;;;;;;;697.00;216.30;;;;;;;28.62;59.48;96821.19;1111234;259;73507;-46
2021/09/12 18:55:45;;;;;;;513.90;144.27;;;;;;;28.28;60.11;96823.83;1113508;260;275553;-48
2021/09/12 19:00:47;;;;;;;730.63;282.93;;;;;;;28.12;60.47;96835.99;1111593;259;99472;-48
2021/09/12 19:05:48;;;;;;;852.50;349.67;;;;;;;28.40;60.09;96844.48;1112125;260;98930;-46
2021/09/12 19:10:50;;;;;;;721.17;271.47;;;;;;;28.23;60.13;96845.27;1111042;260;195228;-46
2021/09/12 19:15:51;;;;;;;824.23;316.10;;;;;;;28.04;60.71;96845.45;1113899;260;98022;-45
2021/09/12 19:20:53;;;;;;;896.97;355.77;;;;;;;27.97;60.74;96846.78;1112621;260;98948;-49
2021/09/12 19:25:54;;;;;;;956.00;390.23;;;;;;;28.58;59.76;96850.21;1112535;260;191014;-48
2021/09/12 19:30:56;;;;;;;1079.90;424.13;;;;;;;27.03;62.33;96856.41;1114291;260;98932;-55
2021/09/12 19:35:59;;;;;;;980.77;366.87;;;;;;;26.86;63.58;96854.10;1113750;260;97973;-48
2021/09/12 19:41:03;;;;;;;1433.30;668.57;;;;;;;26.26;64.77;96863.53;1113191;260;195648;-50
2021/09/12 19:46:04;;;;;;;1095.40;465.93;;;;;;;26.70;64.14;96863.18;1113076;260;93949;-48
2021/09/12 19:51:05;;;;;;;1062.80;430.10;;;;;;;25.43;66.30;96860.83;1113622;260;98847;-47
2021/09/12 19:56:08;;;;;;;929.17;370.67;;;;;;;26.11;64.66;96863.05;1111928;260;97967;-44
2021/09/12 20:01:12;;;;;;;1201.93;504.10;;;;;;;26.40;64.17;96868.60;1112187;260;189291;-48
2021/09/12 20:06:12;;;;;;;1656.00;684.70;;;;;;;26.38;63.93;96876.51;1114334;260;88199;-46
2021/09/12 20:11:14;;;;;;;1349.67;578.63;;;;;;;26.94;63.19;96873.10;1113787;258;98012;-45
2021/09/12 20:16:15;;;;;;;1867.07;733.60;;;;;;;25.93;64.91;96873.22;1114328;259;98955;-50
2021/09/12 20:21:17;;;;;;;1334.50;542.13;;;;;;;26.28;64.04;96877.88;1110825;260;99443;-46
2021/09/12 20:26:19;;;;;;;1528.87;613.13;;;;;;;26.33;64.05;96884.52;1112360;260;70829;-50
2021/09/12 20:31:20;;;;;;;1410.47;552.65;;;;;;;26.46;63.72;96880.41;1110710;260;72502;-49
2021/09/12 20:36:22;;;;;;;1612.70;668.37;;;;;;;26.40;63.79;96888.05;1108243;260;276467;-47
2021/09/12 20:41:23;;;;;;;1649.67;667.00;;;;;;;26.79;63.56;96881.19;1112370;260;98944;-45
2021/09/12 20:46:25;;;;;;;1440.97;574.97;;;;;;;26.74;62.78;96889.05;1112898;260;98903;-49
2021/09/12 20:51:26;;;;;;;1242.07;489.57;;;;;;;26.94;63.06;96880.05;1113377;260;193267;-41
2021/09/12 20:56:28;;;;;;;1119.77;413.80;;;;;;;27.22;61.61;96878.32;1112562;260;98987;-48
2021/09/12 21:01:30;;;;;;;909.90;314.40;;;;;;;27.33;61.32;96880.70;1108036;260;98939;-47
2021/09/12 21:06:31;;;;;;;794.43;269.37;;;;;;;27.40;61.26;96883.57;1107753;261;191566;-46
2021/09/12 21:11:33;;;;;;;1005.07;395.20;;;;;;;27.43;61.23;96884.20;1113243;259;98008;-45
2021/09/12 21:16:34;;;;;;;939.63;361.87;;;;;;;27.37;61.19;96889.31;1112625;260;96944;-45
2021/09/12 21:21:36;;;;;;;1077.43;430.47;;;;;;;27.26;61.34;96891.72;1112652;260;195633;-44
2021/09/12 21:26:37;;;;;;;1072.37;415.23;;;;;;;27.31;61.26;96892.78;1112800;260;98059;-46
2021/09/12 21:31:39;;;;;;;1102.70;444.37;;;;;;;27.20;61.55;96898.77;1111521;260;98964;-45
2021/09/12 21:36:41;;;;;;;1129.23;462.63;;;;;;;27.12;61.50;96898.47;1112760;260;190056;-48
2021/09/12 21:41:42;;;;;;;1088.00;439.83;;;;;;;27.13;61.57;96897.28;1112860;260;98097;-47
2021/09/12 21:46:44;;;;;;;984.60;378.43;;;;;;;27.09;61.60;96895.82;1113023;260;98950;-47
2021/09/12 21:51:46;;;;;;;1516.15;608.95;;;;;;;26.99;61.90;96900.59;1112912;259;98872;-47
2021/09/12 21:56:47;;;;;;;1210.43;485.13;;;;;;;27.03;61.64;96899.52;1111607;260;70926;-47
2021/09/12 22:01:49;;;;;;;1746.57;715.90;;;;;;;26.45;63.81;96900.24;1112818;260;71776;-50
2021/09/12 22:06:50;;;;;;;1270.07;519.43;;;;;;;26.22;63.13;96900.98;1113365;260;275736;-45
2021/09/12 22:11:52;;;;;;;1700.73;689.20;;;;;;;26.42;63.03;96896.82;1114171;260;98948;-46
2021/09/12 22:16:53;;;;;;;1357.43;542.53;;;;;;;26.38;62.94;96898.73;1111762;260;99011;-46
2021/09/12 22:21:55;;;;;;;1618.63;644.10;;;;;;;26.32;63.00;96902.36;1112681;260;195905;-44
2021/09/12 22:26:56;;;;;;;1319.00;513.33;;;;;;;26.38;62.87;96898.73;1112706;260;98021;-49
2021/09/12 22:31:58;;;;;;;1498.47;590.23;;;;;;;26.72;62.08;96906.70;1112481;260;98839;-47
2021/09/12 22:36:59;;;;;;;1332.67;516.13;;;;;;;26.96;61.61;96896.58;1110964;260;190319;-46
2021/09/12 22:42:01;;;;;;;1169.07;436.33;;;;;;;27.14;61.10;96896.11;1104205;262;98962;-49
2021/09/12 22:47:03;;;;;;;1179.33;451.77;;;;;;;27.35;60.64;96889.48;1103440;262;99014;-46